sensor_id;sensor_type;location;lat;lon;timestamp;P1;durP1;ratioP1;P2;durP2;ratioP2
64799;SDS011;51233;51.982;4.594;2024-01-15T00:02:34;6.88;;;1.30;;
64799;SDS011;51233;51.982;4.594;2024-01-15T00:05:34;5.75;;;1.50;;
64799;SDS011;51233;51.982;4.594;2024-01-15T00:08:34;2.80;;;1.13;;
64799;SDS011;51233;51.982;4.594;2024-01-15T00:11:34;6.22;;;1.30;;
64799;SDS011;51233;51.982;4.594;2024-01-15T00:14:34;5.53;;;1.58;;
64799;SDS011;51233;51.982;4.594;2024-01-15T00:17:35;4.47;;;1.20;;
64799;SDS011;51233;51.982;4.594;2024-01-15T00:20:35;6.60;;;1.17;;
64799;SDS011;51233;51.982;4.594;2024-01-15T00:23:35;4.30;;;1.40;;
64799;SDS011;51233;51.982;4.594;2024-01-15T00:26:35;4.35;;;1.27;;
64799;SDS011;51233;51.982;4.594;2024-01-15T00:29:36;5.77;;;1.60;;
64799;SDS011;51233;51.982;4.594;2024-01-15T00:32:36;5.00;;;1.20;;
64799;SDS011;51233;51.982;4.594;2024-01-15T00:35:36;5.83;;;1.17;;
64799;SDS011;51233;51.982;4.594;2024-01-15T00:38:36;3.33;;;1.50;;
64799;SDS011;51233;51.982;4.594;2024-01-15T00:41:36;7.45;;;1.50;;
64799;SDS011;51233;51.982;4.594;2024-01-15T00:44:37;4.57;;;1.27;;
64799;SDS011;51233;51.982;4.594;2024-01-15T00:47:37;3.90;;;1.55;;
64799;SDS011;51233;51.982;4.594;2024-01-15T00:50:37;6.93;;;1.63;;
64799;SDS011;51233;51.982;4.594;2024-01-15T00:53:37;6.78;;;1.52;;
64799;SDS011;51233;51.982;4.594;2024-01-15T00:56:37;6.03;;;1.65;;
64799;SDS011;51233;51.982;4.594;2024-01-15T00:59:38;6.67;;;1.43;;
64799;SDS011;51233;51.982;4.594;2024-01-15T01:02:38;5.80;;;1.33;;
64799;SDS011;51233;51.982;4.594;2024-01-15T01:05:38;9.27;;;1.20;;
64799;SDS011;51233;51.982;4.594;2024-01-15T01:08:38;5.20;;;1.25;;
64799;SDS011;51233;51.982;4.594;2024-01-15T01:11:39;5.43;;;1.10;;
64799;SDS011;51233;51.982;4.594;2024-01-15T01:14:39;5.53;;;1.30;;
64799;SDS011;51233;51.982;4.594;2024-01-15T01:17:39;4.45;;;1.20;;
64799;SDS011;51233;51.982;4.594;2024-01-15T01:20:39;5.30;;;1.45;;
64799;SDS011;51233;51.982;4.594;2024-01-15T01:23:39;4.18;;;1.00;;
64799;SDS011;51233;51.982;4.594;2024-01-15T01:26:40;3.05;;;1.00;;
64799;SDS011;51233;51.982;4.594;2024-01-15T01:29:40;3.22;;;1.00;;
64799;SDS011;51233;51.982;4.594;2024-01-15T01:32:40;3.33;;;0.77;;
64799;SDS011;51233;51.982;4.594;2024-01-15T01:35:40;3.00;;;1.30;;
64799;SDS011;51233;51.982;4.594;2024-01-15T01:38:40;4.88;;;1.08;;
64799;SDS011;51233;51.982;4.594;2024-01-15T01:41:41;2.20;;;0.83;;
64799;SDS011;51233;51.982;4.594;2024-01-15T01:44:41;4.18;;;1.70;;
64799;SDS011;51233;51.982;4.594;2024-01-15T01:47:41;5.57;;;0.93;;
64799;SDS011;51233;51.982;4.594;2024-01-15T01:50:42;4.30;;;0.68;;
64799;SDS011;51233;51.982;4.594;2024-01-15T01:53:43;2.80;;;0.88;;
64799;SDS011;51233;51.982;4.594;2024-01-15T01:59:44;5.03;;;1.20;;
64799;SDS011;51233;51.982;4.594;2024-01-15T02:02:45;2.13;;;0.93;;
64799;SDS011;51233;51.982;4.594;2024-01-15T02:05:45;5.45;;;1.00;;
64799;SDS011;51233;51.982;4.594;2024-01-15T02:08:48;5.50;;;1.50;;
64799;SDS011;51233;51.982;4.594;2024-01-15T02:11:48;3.20;;;0.77;;
64799;SDS011;51233;51.982;4.594;2024-01-15T02:14:48;2.42;;;0.95;;
64799;SDS011;51233;51.982;4.594;2024-01-15T02:20:58;4.93;;;1.20;;
64799;SDS011;51233;51.982;4.594;2024-01-15T02:23:58;4.57;;;1.00;;
64799;SDS011;51233;51.982;4.594;2024-01-15T02:26:58;7.47;;;1.30;;
64799;SDS011;51233;51.982;4.594;2024-01-15T02:29:59;5.25;;;1.17;;
64799;SDS011;51233;51.982;4.594;2024-01-15T02:32:59;4.70;;;1.23;;
64799;SDS011;51233;51.982;4.594;2024-01-15T02:35:59;3.78;;;1.05;;
64799;SDS011;51233;51.982;4.594;2024-01-15T02:38:59;2.75;;;0.65;;
64799;SDS011;51233;51.982;4.594;2024-01-15T02:41:59;1.70;;;0.80;;
64799;SDS011;51233;51.982;4.594;2024-01-15T02:45:00;1.98;;;0.50;;
64799;SDS011;51233;51.982;4.594;2024-01-15T02:48:00;1.40;;;0.40;;
64799;SDS011;51233;51.982;4.594;2024-01-15T02:51:00;1.35;;;0.52;;
64799;SDS011;51233;51.982;4.594;2024-01-15T02:54:01;1.63;;;0.70;;
64799;SDS011;51233;51.982;4.594;2024-01-15T02:57:01;2.35;;;0.43;;
64799;SDS011;51233;51.982;4.594;2024-01-15T03:00:01;2.90;;;0.95;;
64799;SDS011;51233;51.982;4.594;2024-01-15T03:03:01;4.05;;;0.80;;
64799;SDS011;51233;51.982;4.594;2024-01-15T03:06:01;0.57;;;0.30;;
64799;SDS011;51233;51.982;4.594;2024-01-15T03:09:02;1.13;;;0.73;;
64799;SDS011;51233;51.982;4.594;2024-01-15T03:12:03;1.67;;;0.53;;
64799;SDS011;51233;51.982;4.594;2024-01-15T03:15:04;2.55;;;0.65;;
64799;SDS011;51233;51.982;4.594;2024-01-15T03:18:04;3.10;;;0.68;;
64799;SDS011;51233;51.982;4.594;2024-01-15T03:21:05;4.50;;;1.00;;
64799;SDS011;51233;51.982;4.594;2024-01-15T03:24:06;2.83;;;0.87;;
64799;SDS011;51233;51.982;4.594;2024-01-15T03:27:06;3.10;;;0.88;;
64799;SDS011;51233;51.982;4.594;2024-01-15T03:30:06;1.65;;;0.32;;
64799;SDS011;51233;51.982;4.594;2024-01-15T03:33:07;1.40;;;0.73;;
64799;SDS011;51233;51.982;4.594;2024-01-15T03:36:07;2.10;;;0.80;;
64799;SDS011;51233;51.982;4.594;2024-01-15T03:39:07;4.03;;;1.13;;
64799;SDS011;51233;51.982;4.594;2024-01-15T03:42:08;3.10;;;0.77;;
64799;SDS011;51233;51.982;4.594;2024-01-15T03:45:08;1.73;;;0.57;;
64799;SDS011;51233;51.982;4.594;2024-01-15T03:48:08;2.72;;;0.98;;
64799;SDS011;51233;51.982;4.594;2024-01-15T03:51:08;0.80;;;0.60;;
64799;SDS011;51233;51.982;4.594;2024-01-15T03:54:08;3.03;;;0.80;;
64799;SDS011;51233;51.982;4.594;2024-01-15T03:57:09;4.90;;;0.90;;
64799;SDS011;51233;51.982;4.594;2024-01-15T04:00:09;1.88;;;0.90;;
64799;SDS011;51233;51.982;4.594;2024-01-15T04:03:09;5.03;;;1.20;;
64799;SDS011;51233;51.982;4.594;2024-01-15T04:06:10;2.72;;;0.82;;
64799;SDS011;51233;51.982;4.594;2024-01-15T04:09:11;2.65;;;0.85;;
64799;SDS011;51233;51.982;4.594;2024-01-15T04:12:11;2.30;;;1.00;;
64799;SDS011;51233;51.982;4.594;2024-01-15T04:15:12;2.45;;;0.98;;
64799;SDS011;51233;51.982;4.594;2024-01-15T04:18:12;3.70;;;1.00;;
64799;SDS011;51233;51.982;4.594;2024-01-15T04:21:12;5.05;;;1.13;;
64799;SDS011;51233;51.982;4.594;2024-01-15T04:24:12;2.45;;;0.80;;
64799;SDS011;51233;51.982;4.594;2024-01-15T04:27:13;2.70;;;0.80;;
64799;SDS011;51233;51.982;4.594;2024-01-15T04:30:13;0.80;;;0.35;;
64799;SDS011;51233;51.982;4.594;2024-01-15T04:33:13;1.80;;;0.30;;
64799;SDS011;51233;51.982;4.594;2024-01-15T04:36:13;0.98;;;0.47;;
64799;SDS011;51233;51.982;4.594;2024-01-15T04:39:13;1.20;;;0.50;;
64799;SDS011;51233;51.982;4.594;2024-01-15T04:42:14;0.97;;;0.33;;
64799;SDS011;51233;51.982;4.594;2024-01-15T04:45:14;1.03;;;0.53;;
64799;SDS011;51233;51.982;4.594;2024-01-15T04:48:14;1.40;;;0.70;;
64799;SDS011;51233;51.982;4.594;2024-01-15T04:51:14;1.35;;;0.57;;
64799;SDS011;51233;51.982;4.594;2024-01-15T04:54:14;0.52;;;0.20;;
64799;SDS011;51233;51.982;4.594;2024-01-15T04:57:17;0.73;;;0.38;;
64799;SDS011;51233;51.982;4.594;2024-01-15T05:00:17;0.55;;;0.30;;
64799;SDS011;51233;51.982;4.594;2024-01-15T05:03:18;0.75;;;0.17;;
64799;SDS011;51233;51.982;4.594;2024-01-15T05:06:18;1.25;;;0.30;;
64799;SDS011;51233;51.982;4.594;2024-01-15T05:09:18;0.60;;;0.50;;
64799;SDS011;51233;51.982;4.594;2024-01-15T05:12:18;0.52;;;0.52;;
64799;SDS011;51233;51.982;4.594;2024-01-15T05:15:18;1.92;;;0.60;;
64799;SDS011;51233;51.982;4.594;2024-01-15T05:18:18;1.55;;;0.30;;
64799;SDS011;51233;51.982;4.594;2024-01-15T05:21:19;0.82;;;0.52;;
64799;SDS011;51233;51.982;4.594;2024-01-15T05:24:19;0.52;;;0.40;;
64799;SDS011;51233;51.982;4.594;2024-01-15T05:27:19;1.08;;;0.50;;
64799;SDS011;51233;51.982;4.594;2024-01-15T05:30:19;1.10;;;0.40;;
64799;SDS011;51233;51.982;4.594;2024-01-15T05:33:19;0.98;;;0.57;;
64799;SDS011;51233;51.982;4.594;2024-01-15T05:36:20;0.65;;;0.30;;
64799;SDS011;51233;51.982;4.594;2024-01-15T05:39:20;1.42;;;0.85;;
64799;SDS011;51233;51.982;4.594;2024-01-15T05:42:20;0.97;;;0.60;;
64799;SDS011;51233;51.982;4.594;2024-01-15T05:45:20;1.25;;;0.52;;
64799;SDS011;51233;51.982;4.594;2024-01-15T05:48:20;0.88;;;0.60;;
64799;SDS011;51233;51.982;4.594;2024-01-15T05:51:20;1.88;;;0.63;;
64799;SDS011;51233;51.982;4.594;2024-01-15T05:54:21;1.50;;;0.63;;
64799;SDS011;51233;51.982;4.594;2024-01-15T05:57:21;2.25;;;0.90;;
64799;SDS011;51233;51.982;4.594;2024-01-15T06:00:21;2.83;;;0.80;;
64799;SDS011;51233;51.982;4.594;2024-01-15T06:03:21;1.20;;;0.50;;
64799;SDS011;51233;51.982;4.594;2024-01-15T06:06:21;5.28;;;1.00;;
64799;SDS011;51233;51.982;4.594;2024-01-15T06:09:22;2.90;;;0.80;;
64799;SDS011;51233;51.982;4.594;2024-01-15T06:12:22;3.10;;;1.17;;
64799;SDS011;51233;51.982;4.594;2024-01-15T06:15:22;2.33;;;0.90;;
64799;SDS011;51233;51.982;4.594;2024-01-15T06:18:22;2.30;;;0.95;;
64799;SDS011;51233;51.982;4.594;2024-01-15T06:21:22;3.53;;;1.10;;
64799;SDS011;51233;51.982;4.594;2024-01-15T06:24:23;3.30;;;1.10;;
64799;SDS011;51233;51.982;4.594;2024-01-15T06:27:23;2.03;;;0.53;;
64799;SDS011;51233;51.982;4.594;2024-01-15T06:30:23;1.90;;;0.75;;
64799;SDS011;51233;51.982;4.594;2024-01-15T06:33:23;0.47;;;0.30;;
64799;SDS011;51233;51.982;4.594;2024-01-15T06:36:23;0.40;;;0.23;;
64799;SDS011;51233;51.982;4.594;2024-01-15T06:39:24;0.20;;;0.20;;
64799;SDS011;51233;51.982;4.594;2024-01-15T06:42:24;0.20;;;0.20;;
64799;SDS011;51233;51.982;4.594;2024-01-15T06:45:25;0.70;;;0.40;;
64799;SDS011;51233;51.982;4.594;2024-01-15T06:48:25;0.40;;;0.23;;
64799;SDS011;51233;51.982;4.594;2024-01-15T06:51:25;1.17;;;0.40;;
64799;SDS011;51233;51.982;4.594;2024-01-15T06:54:25;0.40;;;0.30;;
64799;SDS011;51233;51.982;4.594;2024-01-15T06:57:26;0.83;;;0.30;;
64799;SDS011;51233;51.982;4.594;2024-01-15T07:00:26;0.68;;;0.57;;
64799;SDS011;51233;51.982;4.594;2024-01-15T07:03:27;1.67;;;0.70;;
64799;SDS011;51233;51.982;4.594;2024-01-15T07:06:27;0.88;;;0.57;;
64799;SDS011;51233;51.982;4.594;2024-01-15T07:09:27;3.10;;;0.67;;
64799;SDS011;51233;51.982;4.594;2024-01-15T07:12:27;2.95;;;0.55;;
64799;SDS011;51233;51.982;4.594;2024-01-15T07:15:28;1.23;;;0.47;;
64799;SDS011;51233;51.982;4.594;2024-01-15T07:18:28;1.52;;;0.63;;
64799;SDS011;51233;51.982;4.594;2024-01-15T07:21:28;1.65;;;0.60;;
64799;SDS011;51233;51.982;4.594;2024-01-15T07:24:28;1.27;;;0.70;;
64799;SDS011;51233;51.982;4.594;2024-01-15T07:27:28;2.27;;;0.70;;
64799;SDS011;51233;51.982;4.594;2024-01-15T07:30:29;1.73;;;0.65;;
64799;SDS011;51233;51.982;4.594;2024-01-15T07:33:29;2.37;;;0.60;;
64799;SDS011;51233;51.982;4.594;2024-01-15T07:36:29;2.92;;;0.60;;
64799;SDS011;51233;51.982;4.594;2024-01-15T07:39:29;1.52;;;0.80;;
64799;SDS011;51233;51.982;4.594;2024-01-15T07:42:30;1.30;;;0.83;;
64799;SDS011;51233;51.982;4.594;2024-01-15T07:45:30;1.80;;;0.93;;
64799;SDS011;51233;51.982;4.594;2024-01-15T07:48:31;1.90;;;1.03;;
64799;SDS011;51233;51.982;4.594;2024-01-15T07:51:31;4.10;;;1.20;;
64799;SDS011;51233;51.982;4.594;2024-01-15T07:54:32;4.20;;;1.10;;
64799;SDS011;51233;51.982;4.594;2024-01-15T07:57:34;7.53;;;1.50;;
64799;SDS011;51233;51.982;4.594;2024-01-15T08:00:35;3.08;;;1.25;;
64799;SDS011;51233;51.982;4.594;2024-01-15T08:03:36;2.77;;;1.33;;
64799;SDS011;51233;51.982;4.594;2024-01-15T08:06:36;5.37;;;1.37;;
64799;SDS011;51233;51.982;4.594;2024-01-15T08:09:36;4.20;;;0.90;;
64799;SDS011;51233;51.982;4.594;2024-01-15T08:12:36;4.25;;;0.85;;
64799;SDS011;51233;51.982;4.594;2024-01-15T08:15:37;1.77;;;0.83;;
64799;SDS011;51233;51.982;4.594;2024-01-15T08:18:37;3.33;;;0.80;;
64799;SDS011;51233;51.982;4.594;2024-01-15T08:21:37;6.28;;;1.10;;
64799;SDS011;51233;51.982;4.594;2024-01-15T08:24:37;3.50;;;1.00;;
64799;SDS011;51233;51.982;4.594;2024-01-15T08:27:37;6.60;;;1.48;;
64799;SDS011;51233;51.982;4.594;2024-01-15T08:30:37;4.35;;;0.70;;
64799;SDS011;51233;51.982;4.594;2024-01-15T08:33:38;3.30;;;0.82;;
64799;SDS011;51233;51.982;4.594;2024-01-15T08:36:38;4.63;;;1.20;;
64799;SDS011;51233;51.982;4.594;2024-01-15T08:39:38;3.05;;;1.08;;
64799;SDS011;51233;51.982;4.594;2024-01-15T08:42:38;1.63;;;0.60;;
64799;SDS011;51233;51.982;4.594;2024-01-15T08:45:38;3.45;;;1.00;;
64799;SDS011;51233;51.982;4.594;2024-01-15T08:48:39;3.22;;;0.80;;
64799;SDS011;51233;51.982;4.594;2024-01-15T08:51:39;2.65;;;0.90;;
64799;SDS011;51233;51.982;4.594;2024-01-15T08:54:39;4.13;;;0.93;;
64799;SDS011;51233;51.982;4.594;2024-01-15T08:57:40;3.83;;;0.95;;
64799;SDS011;51233;51.982;4.594;2024-01-15T09:00:40;2.08;;;0.85;;
64799;SDS011;51233;51.982;4.594;2024-01-15T09:03:40;3.47;;;1.00;;
64799;SDS011;51233;51.982;4.594;2024-01-15T09:06:44;2.03;;;0.80;;
64799;SDS011;51233;51.982;4.594;2024-01-15T09:09:45;3.10;;;0.85;;
64799;SDS011;51233;51.982;4.594;2024-01-15T09:12:46;2.43;;;0.77;;
64799;SDS011;51233;51.982;4.594;2024-01-15T09:15:46;2.58;;;0.40;;
64799;SDS011;51233;51.982;4.594;2024-01-15T09:18:49;1.73;;;0.80;;
64799;SDS011;51233;51.982;4.594;2024-01-15T09:21:50;1.52;;;0.57;;
64799;SDS011;51233;51.982;4.594;2024-01-15T09:24:50;1.17;;;0.40;;
64799;SDS011;51233;51.982;4.594;2024-01-15T09:27:50;1.52;;;0.65;;
64799;SDS011;51233;51.982;4.594;2024-01-15T09:30:50;2.80;;;0.50;;
64799;SDS011;51233;51.982;4.594;2024-01-15T09:33:50;4.38;;;0.88;;
64799;SDS011;51233;51.982;4.594;2024-01-15T09:36:55;1.92;;;0.93;;
64799;SDS011;51233;51.982;4.594;2024-01-15T09:39:56;4.10;;;1.00;;
64799;SDS011;51233;51.982;4.594;2024-01-15T09:42:56;1.33;;;0.68;;
64799;SDS011;51233;51.982;4.594;2024-01-15T09:45:57;2.95;;;0.98;;
64799;SDS011;51233;51.982;4.594;2024-01-15T09:48:57;1.35;;;0.55;;
64799;SDS011;51233;51.982;4.594;2024-01-15T09:51:57;3.05;;;1.33;;
64799;SDS011;51233;51.982;4.594;2024-01-15T09:54:58;1.95;;;0.95;;
64799;SDS011;51233;51.982;4.594;2024-01-15T09:57:59;3.95;;;0.85;;
64799;SDS011;51233;51.982;4.594;2024-01-15T10:01:00;0.65;;;0.20;;
64799;SDS011;51233;51.982;4.594;2024-01-15T10:04:01;2.25;;;0.50;;
64799;SDS011;51233;51.982;4.594;2024-01-15T10:07:01;1.73;;;0.70;;
64799;SDS011;51233;51.982;4.594;2024-01-15T10:10:02;0.45;;;0.30;;
64799;SDS011;51233;51.982;4.594;2024-01-15T10:13:03;3.05;;;0.65;;
64799;SDS011;51233;51.982;4.594;2024-01-15T10:16:04;1.83;;;0.43;;
64799;SDS011;51233;51.982;4.594;2024-01-15T10:19:04;2.17;;;0.80;;
64799;SDS011;51233;51.982;4.594;2024-01-15T10:22:05;1.42;;;0.65;;
64799;SDS011;51233;51.982;4.594;2024-01-15T10:25:06;1.52;;;0.68;;
64799;SDS011;51233;51.982;4.594;2024-01-15T10:28:06;4.88;;;1.08;;
64799;SDS011;51233;51.982;4.594;2024-01-15T10:31:06;2.45;;;1.20;;
64799;SDS011;51233;51.982;4.594;2024-01-15T10:34:10;0.40;;;0.40;;
64799;SDS011;51233;51.982;4.594;2024-01-15T10:37:12;4.78;;;1.05;;
64799;SDS011;51233;51.982;4.594;2024-01-15T10:40:13;1.27;;;0.60;;
64799;SDS011;51233;51.982;4.594;2024-01-15T10:43:13;2.30;;;0.55;;
64799;SDS011;51233;51.982;4.594;2024-01-15T10:46:14;3.53;;;0.63;;
64799;SDS011;51233;51.982;4.594;2024-01-15T10:49:14;2.15;;;0.82;;
64799;SDS011;51233;51.982;4.594;2024-01-15T10:52:15;1.45;;;0.45;;
64799;SDS011;51233;51.982;4.594;2024-01-15T10:55:15;2.03;;;1.07;;
64799;SDS011;51233;51.982;4.594;2024-01-15T10:58:15;1.63;;;0.80;;
64799;SDS011;51233;51.982;4.594;2024-01-15T11:01:16;3.15;;;0.80;;
64799;SDS011;51233;51.982;4.594;2024-01-15T11:04:16;1.87;;;0.60;;
64799;SDS011;51233;51.982;4.594;2024-01-15T11:07:17;0.60;;;0.30;;
64799;SDS011;51233;51.982;4.594;2024-01-15T11:16:53;1.13;;;0.60;;
64799;SDS011;51233;51.982;4.594;2024-01-15T11:19:53;1.70;;;0.45;;
64799;SDS011;51233;51.982;4.594;2024-01-15T11:22:54;1.00;;;0.30;;
64799;SDS011;51233;51.982;4.594;2024-01-15T11:25:57;1.48;;;0.50;;
64799;SDS011;51233;51.982;4.594;2024-01-15T11:28:58;5.07;;;0.88;;
64799;SDS011;51233;51.982;4.594;2024-01-15T11:35:01;3.03;;;0.50;;
64799;SDS011;51233;51.982;4.594;2024-01-15T11:38:02;0.85;;;0.30;;
64799;SDS011;51233;51.982;4.594;2024-01-15T11:41:05;1.57;;;0.50;;
64799;SDS011;51233;51.982;4.594;2024-01-15T11:44:13;1.13;;;0.52;;
64799;SDS011;51233;51.982;4.594;2024-01-15T11:47:13;1.70;;;0.40;;
64799;SDS011;51233;51.982;4.594;2024-01-15T11:50:13;0.30;;;0.30;;
64799;SDS011;51233;51.982;4.594;2024-01-15T11:53:16;0.00;;;0.00;;
64799;SDS011;51233;51.982;4.594;2024-01-15T11:56:17;2.67;;;1.05;;
64799;SDS011;51233;51.982;4.594;2024-01-15T11:59:18;4.17;;;1.20;;
64799;SDS011;51233;51.982;4.594;2024-01-15T12:02:18;2.20;;;0.77;;
64799;SDS011;51233;51.982;4.594;2024-01-15T12:05:18;3.60;;;0.95;;
64799;SDS011;51233;51.982;4.594;2024-01-15T12:08:22;0.50;;;0.43;;
64799;SDS011;51233;51.982;4.594;2024-01-15T12:11:23;0.40;;;0.35;;
64799;SDS011;51233;51.982;4.594;2024-01-15T12:14:25;2.05;;;0.55;;
64799;SDS011;51233;51.982;4.594;2024-01-15T12:17:26;1.08;;;0.43;;
64799;SDS011;51233;51.982;4.594;2024-01-15T12:20:27;1.25;;;0.80;;
64799;SDS011;51233;51.982;4.594;2024-01-15T12:23:27;3.30;;;1.30;;
64799;SDS011;51233;51.982;4.594;2024-01-15T12:26:28;4.20;;;0.90;;
64799;SDS011;51233;51.982;4.594;2024-01-15T12:29:28;0.87;;;0.67;;
64799;SDS011;51233;51.982;4.594;2024-01-15T12:32:28;4.73;;;0.87;;
64799;SDS011;51233;51.982;4.594;2024-01-15T12:35:29;1.70;;;0.90;;
64799;SDS011;51233;51.982;4.594;2024-01-15T12:38:30;2.90;;;1.07;;
64799;SDS011;51233;51.982;4.594;2024-01-15T12:41:30;4.82;;;1.33;;
64799;SDS011;51233;51.982;4.594;2024-01-15T12:44:30;2.23;;;1.10;;
64799;SDS011;51233;51.982;4.594;2024-01-15T12:47:30;4.27;;;1.43;;
64799;SDS011;51233;51.982;4.594;2024-01-15T12:50:31;6.20;;;1.60;;
64799;SDS011;51233;51.982;4.594;2024-01-15T12:53:33;4.57;;;1.50;;
64799;SDS011;51233;51.982;4.594;2024-01-15T12:56:33;1.43;;;1.00;;
64799;SDS011;51233;51.982;4.594;2024-01-15T12:59:33;2.67;;;1.20;;
64799;SDS011;51233;51.982;4.594;2024-01-15T13:02:34;3.17;;;1.33;;
64799;SDS011;51233;51.982;4.594;2024-01-15T13:05:34;5.57;;;1.80;;
64799;SDS011;51233;51.982;4.594;2024-01-15T13:08:36;5.20;;;1.20;;
64799;SDS011;51233;51.982;4.594;2024-01-15T13:11:36;3.87;;;1.30;;
64799;SDS011;51233;51.982;4.594;2024-01-15T13:14:37;2.90;;;0.87;;
64799;SDS011;51233;51.982;4.594;2024-01-15T13:17:38;5.47;;;1.00;;
64799;SDS011;51233;51.982;4.594;2024-01-15T13:20:38;0.70;;;0.30;;
64799;SDS011;51233;51.982;4.594;2024-01-15T13:23:39;2.25;;;0.63;;
64799;SDS011;51233;51.982;4.594;2024-01-15T13:26:39;7.32;;;2.05;;
64799;SDS011;51233;51.982;4.594;2024-01-15T13:29:39;3.33;;;1.33;;
64799;SDS011;51233;51.982;4.594;2024-01-15T13:32:39;4.20;;;1.13;;
64799;SDS011;51233;51.982;4.594;2024-01-15T13:35:39;3.97;;;1.40;;
64799;SDS011;51233;51.982;4.594;2024-01-15T13:38:40;5.35;;;1.23;;
64799;SDS011;51233;51.982;4.594;2024-01-15T13:41:41;4.15;;;1.30;;
64799;SDS011;51233;51.982;4.594;2024-01-15T13:44:42;4.57;;;1.75;;
64799;SDS011;51233;51.982;4.594;2024-01-15T13:47:43;3.80;;;0.95;;
64799;SDS011;51233;51.982;4.594;2024-01-15T13:50:46;3.05;;;0.80;;
64799;SDS011;51233;51.982;4.594;2024-01-15T13:53:46;1.77;;;0.98;;
64799;SDS011;51233;51.982;4.594;2024-01-15T13:56:46;3.43;;;1.17;;
64799;SDS011;51233;51.982;4.594;2024-01-15T13:59:47;2.17;;;0.90;;
64799;SDS011;51233;51.982;4.594;2024-01-15T14:02:47;4.03;;;1.27;;
64799;SDS011;51233;51.982;4.594;2024-01-15T14:05:47;4.37;;;1.13;;
64799;SDS011;51233;51.982;4.594;2024-01-15T14:08:48;3.00;;;1.10;;
64799;SDS011;51233;51.982;4.594;2024-01-15T14:11:48;6.40;;;1.67;;
64799;SDS011;51233;51.982;4.594;2024-01-15T14:14:48;3.33;;;1.35;;
64799;SDS011;51233;51.982;4.594;2024-01-15T14:17:49;3.17;;;1.30;;
64799;SDS011;51233;51.982;4.594;2024-01-15T14:20:50;12.48;;;1.70;;
64799;SDS011;51233;51.982;4.594;2024-01-15T14:23:50;5.50;;;1.60;;
64799;SDS011;51233;51.982;4.594;2024-01-15T14:26:50;3.92;;;1.67;;
64799;SDS011;51233;51.982;4.594;2024-01-15T14:29:50;5.10;;;1.65;;
64799;SDS011;51233;51.982;4.594;2024-01-15T14:32:50;3.83;;;1.20;;
64799;SDS011;51233;51.982;4.594;2024-01-15T14:35:50;3.58;;;0.55;;
64799;SDS011;51233;51.982;4.594;2024-01-15T14:38:51;5.97;;;1.23;;
64799;SDS011;51233;51.982;4.594;2024-01-15T14:41:51;6.32;;;1.60;;
64799;SDS011;51233;51.982;4.594;2024-01-15T14:44:52;10.00;;;2.10;;
64799;SDS011;51233;51.982;4.594;2024-01-15T14:47:52;3.80;;;1.00;;
64799;SDS011;51233;51.982;4.594;2024-01-15T14:50:53;3.90;;;1.47;;
64799;SDS011;51233;51.982;4.594;2024-01-15T14:53:53;5.53;;;1.70;;
64799;SDS011;51233;51.982;4.594;2024-01-15T14:56:53;2.72;;;1.45;;
64799;SDS011;51233;51.982;4.594;2024-01-15T14:59:53;8.10;;;1.80;;
64799;SDS011;51233;51.982;4.594;2024-01-15T15:02:53;8.17;;;1.60;;
64799;SDS011;51233;51.982;4.594;2024-01-15T15:05:53;3.75;;;1.50;;
64799;SDS011;51233;51.982;4.594;2024-01-15T15:08:54;5.80;;;1.70;;
64799;SDS011;51233;51.982;4.594;2024-01-15T15:11:59;2.72;;;1.13;;
64799;SDS011;51233;51.982;4.594;2024-01-15T15:14:59;5.03;;;1.45;;
64799;SDS011;51233;51.982;4.594;2024-01-15T15:17:59;5.20;;;1.03;;
64799;SDS011;51233;51.982;4.594;2024-01-15T15:21:00;3.20;;;1.00;;
64799;SDS011;51233;51.982;4.594;2024-01-15T15:24:00;1.02;;;0.40;;
64799;SDS011;51233;51.982;4.594;2024-01-15T15:27:00;0.80;;;0.20;;
64799;SDS011;51233;51.982;4.594;2024-01-15T15:30:00;1.73;;;0.73;;
64799;SDS011;51233;51.982;4.594;2024-01-15T15:33:01;0.68;;;0.43;;
64799;SDS011;51233;51.982;4.594;2024-01-15T15:36:01;1.00;;;0.57;;
64799;SDS011;51233;51.982;4.594;2024-01-15T15:39:04;1.45;;;0.65;;
64799;SDS011;51233;51.982;4.594;2024-01-15T15:42:05;4.07;;;1.00;;
64799;SDS011;51233;51.982;4.594;2024-01-15T15:45:05;2.40;;;0.87;;
64799;SDS011;51233;51.982;4.594;2024-01-15T15:48:05;1.50;;;0.60;;
64799;SDS011;51233;51.982;4.594;2024-01-15T15:51:06;2.83;;;0.50;;
64799;SDS011;51233;51.982;4.594;2024-01-15T15:54:06;1.63;;;0.90;;
64799;SDS011;51233;51.982;4.594;2024-01-15T15:57:06;1.83;;;0.90;;
64799;SDS011;51233;51.982;4.594;2024-01-15T16:00:06;2.30;;;0.80;;
64799;SDS011;51233;51.982;4.594;2024-01-15T16:03:07;3.90;;;1.20;;
64799;SDS011;51233;51.982;4.594;2024-01-15T16:06:07;5.63;;;1.55;;
64799;SDS011;51233;51.982;4.594;2024-01-15T16:09:07;4.73;;;1.53;;
64799;SDS011;51233;51.982;4.594;2024-01-15T16:12:10;5.13;;;1.38;;
64799;SDS011;51233;51.982;4.594;2024-01-15T16:15:21;5.20;;;1.52;;
64799;SDS011;51233;51.982;4.594;2024-01-15T16:18:22;5.38;;;1.63;;
64799;SDS011;51233;51.982;4.594;2024-01-15T16:21:22;4.13;;;1.20;;
64799;SDS011;51233;51.982;4.594;2024-01-15T16:24:22;4.16;;;1.54;;
64799;SDS011;51233;51.982;4.594;2024-01-15T16:27:24;5.07;;;1.60;;
64799;SDS011;51233;51.982;4.594;2024-01-15T16:30:26;6.72;;;1.60;;
64799;SDS011;51233;51.982;4.594;2024-01-15T16:33:26;6.57;;;1.50;;
64799;SDS011;51233;51.982;4.594;2024-01-15T16:36:27;4.45;;;1.40;;
64799;SDS011;51233;51.982;4.594;2024-01-15T16:39:27;7.68;;;1.67;;
64799;SDS011;51233;51.982;4.594;2024-01-15T16:42:28;7.75;;;1.58;;
64799;SDS011;51233;51.982;4.594;2024-01-15T16:45:28;4.05;;;1.50;;
64799;SDS011;51233;51.982;4.594;2024-01-15T16:48:29;6.60;;;1.48;;
64799;SDS011;51233;51.982;4.594;2024-01-15T16:51:29;5.78;;;1.65;;
64799;SDS011;51233;51.982;4.594;2024-01-15T16:54:30;4.85;;;1.77;;
64799;SDS011;51233;51.982;4.594;2024-01-15T16:57:30;3.28;;;1.00;;
64799;SDS011;51233;51.982;4.594;2024-01-15T17:00:31;7.97;;;1.58;;
64799;SDS011;51233;51.982;4.594;2024-01-15T17:03:31;5.60;;;1.70;;
64799;SDS011;51233;51.982;4.594;2024-01-15T17:06:31;3.80;;;1.50;;
64799;SDS011;51233;51.982;4.594;2024-01-15T17:09:32;1.90;;;0.82;;
64799;SDS011;51233;51.982;4.594;2024-01-15T17:12:33;2.05;;;0.70;;
64799;SDS011;51233;51.982;4.594;2024-01-15T17:15:33;0.30;;;0.30;;
64799;SDS011;51233;51.982;4.594;2024-01-15T17:18:33;0.30;;;0.20;;
64799;SDS011;51233;51.982;4.594;2024-01-15T17:21:34;4.45;;;0.93;;
64799;SDS011;51233;51.982;4.594;2024-01-15T17:24:34;1.92;;;1.20;;
64799;SDS011;51233;51.982;4.594;2024-01-15T17:27:34;3.65;;;1.10;;
64799;SDS011;51233;51.982;4.594;2024-01-15T17:30:34;2.53;;;0.98;;
64799;SDS011;51233;51.982;4.594;2024-01-15T17:33:34;5.35;;;2.67;;
64799;SDS011;51233;51.982;4.594;2024-01-15T17:36:34;3.63;;;1.70;;
64799;SDS011;51233;51.982;4.594;2024-01-15T17:39:35;5.60;;;1.38;;
64799;SDS011;51233;51.982;4.594;2024-01-15T17:42:35;4.32;;;1.52;;
64799;SDS011;51233;51.982;4.594;2024-01-15T17:45:35;6.88;;;2.08;;
64799;SDS011;51233;51.982;4.594;2024-01-15T17:48:35;4.90;;;2.13;;
64799;SDS011;51233;51.982;4.594;2024-01-15T17:51:36;5.22;;;1.60;;
64799;SDS011;51233;51.982;4.594;2024-01-15T17:54:36;6.43;;;1.42;;
64799;SDS011;51233;51.982;4.594;2024-01-15T17:57:36;5.93;;;1.73;;
64799;SDS011;51233;51.982;4.594;2024-01-15T18:00:37;3.33;;;1.45;;
64799;SDS011;51233;51.982;4.594;2024-01-15T18:03:37;2.88;;;1.33;;
64799;SDS011;51233;51.982;4.594;2024-01-15T18:06:38;1.05;;;0.43;;
64799;SDS011;51233;51.982;4.594;2024-01-15T18:09:38;1.10;;;0.50;;
64799;SDS011;51233;51.982;4.594;2024-01-15T18:12:39;1.85;;;0.73;;
64799;SDS011;51233;51.982;4.594;2024-01-15T18:15:39;2.77;;;0.80;;
64799;SDS011;51233;51.982;4.594;2024-01-15T18:18:40;1.37;;;1.03;;
64799;SDS011;51233;51.982;4.594;2024-01-15T18:21:40;2.10;;;0.67;;
64799;SDS011;51233;51.982;4.594;2024-01-15T18:24:40;1.23;;;0.80;;